Time;durP1;ratioP1;P1;durP2;ratioP2;P2;SDS_P1;SDS_P2;PMS_P1;PMS_P2;Temp;Humidity;BMP_temperature;BMP_pressure;BME280_temperature;BME280_humidity;BME280_pressure;Samples;Min_cycle;Max_cycle;Signal;HPM_P1;HPM_P2
2021/11/08 00:00:07;;;;;;;;;;;;;;;15.49;76.06;101662.69;1057366;28;796;-61
2021/11/08 00:00:58;;;;;;;;;;;;;;;15.49;76.49;101660.00;1057290;28;794;-62
2021/11/08 00:01:48;;;;;;;;;;;;;;;15.48;76.11;101669.03;1057062;28;793;-61
2021/11/08 00:02:39;;;;;;;;;;;;;;;15.48;76.20;101666.34;1057369;28;738;-61
2021/11/08 00:03:32;;;;;;;;;;;;;;;15.45;75.88;101663.88;1057098;28;956;-61
2021/11/08 00:04:23;;;;;;;;;;;;;;;15.46;76.41;101665.59;1053139;28;720;-61
2021/11/08 00:05:13;;;;;;;;;;;;;;;15.45;76.02;101668.41;1048997;28;1985;-61
2021/11/08 00:06:05;;;;;;;;;;;;;;;15.45;76.51;101668.41;1048501;28;1686;-61
2021/11/08 00:06:56;;;;;;;;;;;;;;;15.44;76.31;101672.91;1054290;28;833;-61
2021/11/08 00:07:49;;;;;;;;;;;;;;;15.43;76.49;101663.13;1052819;28;857;-61
2021/11/08 00:08:40;;;;;;;;;;;;;;;15.43;76.48;101665.81;1052762;28;845;-61
2021/11/08 00:09:31;;;;;;;;;;;;;;;15.42;76.47;101669.47;1052719;28;731;-61
2021/11/08 00:10:28;;;;;;;;;;;;;;;15.41;75.88;101667.75;1052959;28;912;-61
2021/11/08 00:11:19;;;;;;;;;;;;;;;15.41;76.18;101673.13;1053211;28;708;-61
2021/11/08 00:12:10;;;;;;;;;;;;;;;15.41;75.99;101667.75;1052952;28;769;-61
2021/11/08 00:13:02;;;;;;;;;;;;;;;15.40;76.26;101671.44;1053039;28;779;-61
2021/11/08 00:13:53;;;;;;;;;;;;;;;15.40;75.95;101676.81;1052744;28;759;-61
2021/11/08 00:14:44;;;;;;;;;;;;;;;15.40;76.01;101674.13;1052807;28;681;-61
2021/11/08 00:20:05;;;;;;;;;;;;;;;15.36;76.84;101671.75;1052692;28;735;-61
2021/11/08 00:20:56;;;;;;;;;;;;;;;15.35;75.90;101664.66;1052903;28;766;-61
2021/11/08 00:21:48;;;;;;;;;;;;;;;15.34;76.46;101669.19;1052805;28;745;-61
2021/11/08 00:22:40;;;;;;;;;;;;;;;15.33;76.62;101675.53;1052465;28;732;-61
2021/11/08 00:23:30;;;;;;;;;;;;;;;15.33;76.68;101669.28;1052552;28;1809;-61
2021/11/08 00:24:24;;;;;;;;;;;;;;;15.33;76.40;101670.16;1052840;28;925;-61
2021/11/08 00:25:14;;;;;;;;;;;;;;;15.33;76.60;101674.66;1052159;28;1894;-61
2021/11/08 00:26:05;;;;;;;;;;;;;;;15.32;76.31;101667.56;1052896;28;733;-61
2021/11/08 00:26:55;;;;;;;;;;;;;;;15.31;76.07;101669.41;1052397;28;813;-61
2021/11/08 00:27:46;;;;;;;;;;;;;;;15.31;76.49;101672.09;1052881;28;731;-61
2021/11/08 00:28:36;;;;;;;;;;;;;;;15.30;76.06;101678.41;1052466;28;804;-61
2021/11/08 00:29:26;;;;;;;;;;;;;;;15.29;76.49;101674.88;1052817;28;1083;-61
2021/11/08 00:30:17;;;;;;;;;;;;;;;15.29;76.11;101677.56;1053071;28;826;-61
2021/11/08 00:31:07;;;;;;;;;;;;;;;15.30;76.17;101667.69;1052749;28;706;-61
2021/11/08 00:31:58;;;;;;;;;;;;;;;15.28;76.06;101678.53;1053074;28;716;-61
2021/11/08 00:32:48;;;;;;;;;;;;;;;15.28;76.53;101675.84;1052489;28;955;-61
2021/11/08 00:33:39;;;;;;;;;;;;;;;15.28;76.63;101666.94;1052837;28;693;-61
2021/11/08 00:34:29;;;;;;;;;;;;;;;15.26;76.00;101663.50;1052215;28;928;-60
2021/11/08 00:35:20;;;;;;;;;;;;;;;15.27;76.51;101670.56;1052889;28;699;-59
2021/11/08 00:36:10;;;;;;;;;;;;;;;15.25;76.76;101665.31;1052711;28;558;-60
2021/11/08 00:37:00;;;;;;;;;;;;;;;15.25;76.58;101667.13;1052596;28;865;-59
2021/11/08 00:37:51;;;;;;;;;;;;;;;15.24;76.55;101668.09;1052488;28;685;-60
2021/11/08 00:38:41;;;;;;;;;;;;;;;15.24;75.99;101673.47;1054829;28;1818;-59
2021/11/08 00:39:32;;;;;;;;;;;;;;;15.24;76.33;101665.41;1057218;28;696;-60
2021/11/08 00:40:22;;;;;;;;;;;;;;;15.24;76.70;101673.47;1056881;28;635;-60
2021/11/08 00:41:12;;;;;;;;;;;;;;;15.23;76.48;101667.25;1057055;28;811;-60
2021/11/08 00:42:03;;;;;;;;;;;;;;;15.23;76.40;101666.38;1056856;28;734;-60
2021/11/08 00:42:53;;;;;;;;;;;;;;;15.22;76.43;101675.44;1056927;28;1334;-60
2021/11/08 00:43:44;;;;;;;;;;;;;;;15.21;76.45;101663.84;1057164;28;726;-60
2021/11/08 00:44:34;;;;;;;;;;;;;;;15.22;76.42;101678.13;1056968;28;628;-59
2021/11/08 00:45:24;;;;;;;;;;;;;;;15.20;75.79;101672.88;1057068;28;1959;-59
2021/11/08 00:46:16;;;;;;;;;;;;;;;15.20;76.10;101667.50;1056854;28;630;-59
2021/11/08 00:47:08;;;;;;;;;;;;;;;15.20;76.33;101664.81;1052474;28;1968;-59
2021/11/08 00:47:59;;;;;;;;;;;;;;;15.20;76.14;101664.81;1053263;28;761;-60
2021/11/08 00:48:51;;;;;;;;;;;;;;;15.19;76.02;101664.91;1053497;28;821;-59
2021/11/08 00:49:42;;;;;;;;;;;;;;;15.19;76.35;101667.59;1052350;28;911;-59
2021/11/08 00:50:32;;;;;;;;;;;;;;;15.18;76.17;101663.19;1052642;28;661;-59
2021/11/08 00:51:23;;;;;;;;;;;;;;;15.18;76.49;101671.25;1052818;28;831;-59
2021/11/08 00:52:13;;;;;;;;;;;;;;;15.18;76.10;101673.94;1053515;28;763;-59
2021/11/08 00:53:05;;;;;;;;;;;;;;;15.17;76.02;101669.53;1053029;28;730;-59
2021/11/08 00:53:55;;;;;;;;;;;;;;;15.17;76.50;101670.38;1053369;28;691;-59
2021/11/08 00:54:47;;;;;;;;;;;;;;;15.16;76.26;101674.03;1052955;28;750;-60
2021/11/08 00:55:40;;;;;;;;;;;;;;;15.17;75.91;101669.53;1053249;28;883;-59
2021/11/08 00:56:30;;;;;;;;;;;;;;;15.15;76.18;101672.31;1053122;28;827;-60
2021/11/08 00:57:23;;;;;;;;;;;;;;;15.16;76.49;101674.03;1052784;28;967;-59
2021/11/08 00:58:28;;;;;;;;;;;;;;;15.16;76.47;101679.41;1053430;28;665;-59
2021/11/08 00:59:19;;;;;;;;;;;;;;;15.14;76.33;101670.59;1053348;28;1444;-60
2021/11/08 01:00:10;;;;;;;;;;;;;;;15.14;76.28;101675.13;1052580;28;796;-61
2021/11/08 01:01:05;;;;;;;;;;;;;;;15.14;75.47;101681.34;1053130;28;800;-61
2021/11/08 01:01:58;;;;;;;;;;;;;;;15.14;76.27;101677.81;1053431;28;888;-60
2021/11/08 01:02:48;;;;;;;;;;;;;;;15.13;75.67;101676.06;1052036;28;728;-60
2021/11/08 01:03:40;;;;;;;;;;;;;;;15.13;76.12;101676.06;1052700;28;619;-60
2021/11/08 01:04:31;;;;;;;;;;;;;;;15.13;75.59;101676.94;1053410;28;714;-61
2021/11/08 01:05:21;;;;;;;;;;;;;;;15.13;76.16;101684.13;1052651;28;1906;-60
2021/11/08 01:06:12;;;;;;;;;;;;;;;15.12;75.79;101685.97;1052795;28;922;-60
2021/11/08 01:07:03;;;;;;;;;;;;;;;15.12;75.76;101679.72;1053411;28;727;-60
2021/11/08 01:07:53;;;;;;;;;;;;;;;15.12;75.91;101680.59;1051966;28;830;-61
2021/11/08 01:08:44;;;;;;;;;;;;;;;15.12;76.39;101685.09;1052097;28;2001;-61
2021/11/08 01:09:34;;;;;;;;;;;;;;;15.11;76.40;101683.38;1052592;28;718;-60
2021/11/08 01:10:24;;;;;;;;;;;;;;;15.11;75.61;101680.69;1052650;28;918;-59
2021/11/08 01:11:15;;;;;;;;;;;;;;;15.10;75.47;101673.59;1052998;28;661;-60
2021/11/08 01:12:05;;;;;;;;;;;;;;;15.10;75.49;101681.66;1052609;28;813;-60
2021/11/08 01:12:56;;;;;;;;;;;;;;;15.09;76.13;101675.44;1052927;28;799;-61
2021/11/08 01:13:46;;;;;;;;;;;;;;;15.10;76.26;101681.66;1052578;28;763;-60
2021/11/08 01:14:37;;;;;;;;;;;;;;;15.11;75.95;101678.00;1052609;28;749;-60
2021/11/08 01:15:27;;;;;;;;;;;;;;;15.10;75.58;101681.66;1052532;28;768;-61
2021/11/08 01:16:21;;;;;;;;;;;;;;;15.10;76.08;101679.84;1052685;28;836;-61
2021/11/08 01:17:11;;;;;;;;;;;;;;;15.09;75.58;101683.47;1053059;28;2029;-61
2021/11/08 01:18:01;;;;;;;;;;;;;;;15.09;75.77;101677.25;1052534;28;1829;-61
2021/11/08 01:18:54;;;;;;;;;;;;;;;15.09;76.08;101677.25;1053374;28;788;-61
2021/11/08 01:19:45;;;;;;;;;;;;;;;15.09;75.65;101677.25;1053209;28;764;-61
2021/11/08 01:20:36;;;;;;;;;;;;;;;15.09;76.04;101682.63;1053768;28;857;-61
2021/11/08 01:21:29;;;;;;;;;;;;;;;15.08;76.10;101686.28;1051984;28;737;-61
2021/11/08 01:22:21;;;;;;;;;;;;;;;15.07;76.12;101684.56;1051987;28;633;-61
2021/11/08 01:23:13;;;;;;;;;;;;;;;15.07;75.70;101681.88;1054394;28;711;-61
2021/11/08 01:24:02;;;;;;;;;;;;;;;15.07;75.82;101681.88;1054602;28;818;-61
2021/11/08 01:24:52;;;;;;;;;;;;;;;15.06;75.92;101674.78;1054510;28;1009;-61
2021/11/08 01:25:41;;;;;;;;;;;;;;;15.05;75.97;101673.09;1054463;28;1897;-61
2021/11/08 01:26:30;;;;;;;;;;;;;;;15.05;75.57;101673.91;1054457;28;743;-61
2021/11/08 01:27:19;;;;;;;;;;;;;;;15.05;76.38;101676.59;1054576;28;719;-61
2021/11/08 01:28:11;;;;;;;;;;;;;;;15.04;75.54;101680.28;1053298;28;774;-61
2021/11/08 01:29:01;;;;;;;;;;;;;;;15.03;76.07;101678.56;1052357;28;1319;-60
2021/11/08 01:29:51;;;;;;;;;;;;;;;15.03;75.75;101675.03;1052686;28;745;-60
2021/11/08 01:30:42;;;;;;;;;;;;;;;15.02;75.85;101679.53;1052799;28;1114;-60
2021/11/08 01:31:33;;;;;;;;;;;;;;;15.01;76.35;101674.28;1052585;28;688;-60
2021/11/08 01:32:23;;;;;;;;;;;;;;;15.01;76.17;101685.00;1052626;28;651;-60
2021/11/08 01:33:17;;;;;;;;;;;;;;;15.02;75.74;101681.34;1052656;28;834;-61
2021/11/08 01:34:08;;;;;;;;;;;;;;;15.00;75.77;101689.50;1052825;28;776;-60
2021/11/08 01:34:59;;;;;;;;;;;;;;;15.01;76.64;101687.69;1052407;28;726;-60
2021/11/08 01:36:10;;;;;;;;;;;;;;;15.00;76.28;101689.50;1052479;28;771;-60
2021/11/08 01:37:01;;;;;;;;;;;;;;;15.00;75.54;101692.19;1052510;28;781;-60
2021/11/08 01:38:01;;;;;;;;;;;;;;;14.99;75.92;101692.31;1052565;28;771;-60
2021/11/08 01:38:55;;;;;;;;;;;;;;;14.99;75.42;101695.84;1052118;28;799;-60
2021/11/08 01:39:45;;;;;;;;;;;;;;;14.99;75.61;101689.63;1052827;28;1039;-60
2021/11/08 01:40:35;;;;;;;;;;;;;;;14.99;75.63;101695.00;1053190;28;638;-60
2021/11/08 01:41:27;;;;;;;;;;;;;;;14.99;75.76;101703.91;1053144;28;961;-60
2021/11/08 01:42:17;;;;;;;;;;;;;;;14.98;75.65;101690.59;1052461;28;622;-61
2021/11/08 01:43:08;;;;;;;;;;;;;;;14.99;75.35;101697.66;1052124;28;824;-60
2021/11/08 01:43:58;;;;;;;;;;;;;;;14.97;75.79;101697.78;1053263;28;735;-60
2021/11/08 01:44:48;;;;;;;;;;;;;;;14.97;75.52;101692.41;1052051;28;751;-60
2021/11/08 01:45:39;;;;;;;;;;;;;;;14.96;75.64;101688.00;1051629;28;1901;-60
2021/11/08 01:46:29;;;;;;;;;;;;;;;14.97;75.73;101696.91;1054942;28;1540;-60
2021/11/08 01:47:20;;;;;;;;;;;;;;;14.95;76.06;101694.34;1056956;28;727;-60
2021/11/08 01:48:10;;;;;;;;;;;;;;;14.94;75.88;101690.78;1056619;28;711;-60
2021/11/08 01:49:01;;;;;;;;;;;;;;;14.94;75.66;101695.31;1056299;28;830;-60
2021/11/08 01:49:51;;;;;;;;;;;;;;;14.92;75.79;101684.66;1056651;28;869;-60
2021/11/08 01:50:43;;;;;;;;;;;;;;;14.94;75.63;101695.31;1056845;28;743;-60
2021/11/08 01:51:35;;;;;;;;;;;;;;;14.93;75.69;101691.75;1056810;28;702;-60
2021/11/08 01:52:26;;;;;;;;;;;;;;;14.91;75.29;101696.38;1056850;28;672;-60
2021/11/08 01:53:16;;;;;;;;;;;;;;;14.91;75.58;101685.63;1052318;28;791;-59
2021/11/08 01:54:08;;;;;;;;;;;;;;;14.92;75.54;101702.59;1052595;28;850;-59
2021/11/08 01:54:58;;;;;;;;;;;;;;;14.92;75.54;101694.53;1052418;28;727;-59
2021/11/08 01:55:49;;;;;;;;;;;;;;;14.91;75.69;101695.50;1052637;28;729;-59
2021/11/08 01:56:40;;;;;;;;;;;;;;;14.91;76.32;101698.19;1053549;28;797;-60
2021/11/08 01:57:31;;;;;;;;;;;;;;;14.90;75.32;101700.00;1052562;28;713;-59
2021/11/08 01:58:21;;;;;;;;;;;;;;;14.90;75.67;101704.53;1053900;28;1985;-59
2021/11/08 01:59:13;;;;;;;;;;;;;;;14.88;75.88;101693.91;1056774;28;997;-60
2021/11/08 02:00:03;;;;;;;;;;;;;;;14.88;75.74;101693.91;1056947;28;848;-60
2021/11/08 02:00:54;;;;;;;;;;;;;;;14.88;75.90;101691.22;1056914;28;696;-59
2021/11/08 02:01:44;;;;;;;;;;;;;;;14.88;76.05;101695.72;1056635;28;827;-60
2021/11/08 02:02:35;;;;;;;;;;;;;;;14.88;75.20;101696.56;1056813;28;769;-60
2021/11/08 02:03:25;;;;;;;;;;;;;;;14.88;75.42;101691.22;1056708;28;662;-60
2021/11/08 02:04:16;;;;;;;;;;;;;;;14.88;75.41;101693.91;1056741;28;741;-59
2021/11/08 02:05:06;;;;;;;;;;;;;;;14.88;75.88;101685.84;1056630;28;835;-60
2021/11/08 02:05:57;;;;;;;;;;;;;;;14.88;75.96;101688.53;1056762;28;737;-60
2021/11/08 02:06:47;;;;;;;;;;;;;;;14.87;75.63;101692.16;1056838;28;854;-60
2021/11/08 02:07:37;;;;;;;;;;;;;;;14.85;75.63;101683.41;1052561;28;1516;-59
2021/11/08 02:08:28;;;;;;;;;;;;;;;14.86;75.66;101687.81;1052993;28;1494;-59
2021/11/08 02:09:18;;;;;;;;;;;;;;;14.86;75.90;101686.94;1054979;28;1493;-60
2021/11/08 02:10:09;;;;;;;;;;;;;;;14.86;76.05;101684.25;1056137;28;1441;-59
2021/11/08 02:10:59;;;;;;;;;;;;;;;14.86;75.55;101679.75;1053343;28;1462;-60
2021/11/08 02:11:50;;;;;;;;;;;;;;;14.85;75.72;101686.09;1054462;28;1566;-60
2021/11/08 02:12:40;;;;;;;;;;;;;;;14.85;75.60;101688.75;1055628;28;1714;-60
2021/11/08 02:13:30;;;;;;;;;;;;;;;14.86;75.34;101684.25;1054261;28;1304;-60
2021/11/08 02:14:21;;;;;;;;;;;;;;;14.85;75.85;101683.41;1053688;28;1486;-60
2021/11/08 02:15:11;;;;;;;;;;;;;;;14.85;76.04;101693.28;1055574;28;1426;-60
2021/11/08 02:16:02;;;;;;;;;;;;;;;14.87;75.89;101688.63;1054603;28;1666;-60
2021/11/08 02:16:53;;;;;;;;;;;;;;;14.85;75.62;101686.09;1055407;28;1681;-60
2021/11/08 02:17:46;;;;;;;;;;;;;;;14.87;75.36;101683.25;1056467;28;1590;-60
2021/11/08 02:18:37;;;;;;;;;;;;;;;14.86;75.97;101686.94;1053338;28;1782;-60
2021/11/08 02:19:27;;;;;;;;;;;;;;;14.84;75.42;101681.69;1055883;28;1553;-60
2021/11/08 02:20:19;;;;;;;;;;;;;;;14.84;75.83;101681.69;1052149;28;685;-60
2021/11/08 02:21:10;;;;;;;;;;;;;;;14.86;75.47;101687.81;1053667;28;802;-61
2021/11/08 02:22:03;;;;;;;;;;;;;;;14.85;76.21;101693.28;1057656;28;2057;-60
2021/11/08 02:22:54;;;;;;;;;;;;;;;14.84;75.53;101684.38;1056508;28;754;-61
2021/11/08 02:23:47;;;;;;;;;;;;;;;14.82;75.22;101683.59;1056446;28;779;-62
2021/11/08 02:24:41;;;;;;;;;;;;;;;14.82;75.44;101680.91;1056866;28;869;-62
2021/11/08 02:25:33;;;;;;;;;;;;;;;14.82;75.56;101680.91;1056647;28;1902;-62
2021/11/08 02:26:24;;;;;;;;;;;;;;;14.81;75.99;101678.34;1056717;28;870;-62
2021/11/08 02:27:15;;;;;;;;;;;;;;;14.80;75.85;101674.81;1056667;28;844;-61
2021/11/08 02:28:05;;;;;;;;;;;;;;;14.80;75.98;101677.47;1056822;28;739;-62
2021/11/08 02:28:55;;;;;;;;;;;;;;;14.80;75.30;101684.66;1056611;28;723;-61
2021/11/08 02:29:46;;;;;;;;;;;;;;;14.79;76.21;101681.13;1056773;28;863;-62
2021/11/08 02:30:37;;;;;;;;;;;;;;;14.78;76.06;101679.41;1056594;28;622;-62
2021/11/08 02:31:30;;;;;;;;;;;;;;;14.78;75.86;101671.34;1056680;28;845;-62
2021/11/08 02:32:20;;;;;;;;;;;;;;;14.78;75.41;101673.19;1056500;28;669;-62
2021/11/08 02:33:10;;;;;;;;;;;;;;;14.77;76.05;101672.31;1056561;28;780;-62
2021/11/08 02:34:01;;;;;;;;;;;;;;;14.78;75.31;101673.19;1056840;28;764;-62
2021/11/08 02:34:52;;;;;;;;;;;;;;;14.77;75.61;101672.31;1056612;28;691;-62
2021/11/08 02:35:42;;;;;;;;;;;;;;;14.77;75.34;101674.16;1056452;28;714;-61
2021/11/08 02:36:34;;;;;;;;;;;;;;;14.76;76.02;101669.75;1056686;28;684;-61
2021/11/08 02:37:24;;;;;;;;;;;;;;;14.76;75.83;101669.75;1056469;28;701;-61
2021/11/08 02:38:18;;;;;;;;;;;;;;;14.75;75.60;101663.50;1056554;28;780;-61
2021/11/08 02:39:13;;;;;;;;;;;;;;;14.75;75.65;101663.50;1056746;28;810;-62
2021/11/08 02:40:03;;;;;;;;;;;;;;;14.75;75.49;101660.84;1056419;28;892;-62
2021/11/08 02:40:54;;;;;;;;;;;;;;;14.74;75.63;101661.78;1056620;28;683;-62
2021/11/08 02:41:45;;;;;;;;;;;;;;;14.75;75.49;101651.94;1056481;28;797;-62
2021/11/08 02:42:35;;;;;;;;;;;;;;;14.73;75.67;101660.06;1056805;28;633;-60
2021/11/08 02:43:26;;;;;;;;;;;;;;;14.72;76.00;101650.31;1056440;28;739;-61
2021/11/08 02:44:17;;;;;;;;;;;;;;;14.73;75.37;101651.16;1056417;28;1319;-61
2021/11/08 02:45:09;;;;;;;;;;;;;;;14.73;75.81;101654.72;1053503;28;1877;-61
2021/11/08 02:46:08;;;;;;;;;;;;;;;14.73;75.84;101653.84;1052033;28;912;-61
2021/11/08 02:46:58;;;;;;;;;;;;;;;14.73;75.75;101664.59;1051947;28;1835;-61
2021/11/08 02:47:49;;;;;;;;;;;;;;;14.72;75.97;101663.72;1052939;28;780;-61
2021/11/08 02:48:41;;;;;;;;;;;;;;;14.72;75.31;101663.72;1053127;28;665;-60
2021/11/08 02:49:35;;;;;;;;;;;;;;;14.73;75.97;101673.50;1052946;28;684;-61
2021/11/08 02:50:27;;;;;;;;;;;;;;;14.73;75.88;101672.63;1052990;28;927;-61
2021/11/08 02:51:25;;;;;;;;;;;;;;;14.72;75.76;101666.41;1052872;28;657;-61
2021/11/08 02:52:19;;;;;;;;;;;;;;;14.72;75.84;101669.09;1052998;28;934;-60
2021/11/08 02:53:13;;;;;;;;;;;;;;;14.70;75.26;101671.00;1053053;28;700;-61
2021/11/08 02:54:24;;;;;;;;;;;;;;;14.72;75.60;101678.97;1053011;28;833;-61
2021/11/08 02:55:14;;;;;;;;;;;;;;;14.70;75.29;101671.00;1053065;28;704;-60
2021/11/08 02:56:06;;;;;;;;;;;;;;;14.70;75.30;101675.53;1052931;28;755;-60
2021/11/08 02:56:56;;;;;;;;;;;;;;;14.69;76.07;101677.34;1053131;28;693;-60
2021/11/08 02:57:46;;;;;;;;;;;;;;;14.69;75.50;101674.66;1052961;28;726;-60
2021/11/08 02:58:37;;;;;;;;;;;;;;;14.69;75.81;101669.28;1052931;28;733;-60
2021/11/08 02:59:30;;;;;;;;;;;;;;;14.69;75.30;101669.28;1052905;28;1150;-60
2021/11/08 03:00:21;;;;;;;;;;;;;;;14.69;75.45;101671.16;1052827;28;787;-60
2021/11/08 03:01:12;;;;;;;;;;;;;;;14.69;76.01;101680.03;1053097;28;646;-60
2021/11/08 03:02:03;;;;;;;;;;;;;;;14.68;75.21;101677.47;1053122;28;832;-60
2021/11/08 03:02:54;;;;;;;;;;;;;;;14.67;75.33;101671.25;1053408;28;901;-61
2021/11/08 03:03:48;;;;;;;;;;;;;;;14.66;75.71;101680.25;1053125;28;834;-60
2021/11/08 03:04:41;;;;;;;;;;;;;;;14.66;75.69;101674.91;1052974;28;622;-60
2021/11/08 03:05:34;;;;;;;;;;;;;;;14.67;75.23;101676.63;1052897;28;1979;-60
2021/11/08 03:06:32;;;;;;;;;;;;;;;14.67;75.61;101684.66;1052915;28;741;-61
2021/11/08 03:07:26;;;;;;;;;;;;;;;14.65;75.53;101683.91;1052248;28;932;-60
2021/11/08 03:08:17;;;;;;;;;;;;;;;14.66;75.82;101680.25;1052527;28;658;-60
2021/11/08 03:09:07;;;;;;;;;;;;;;;14.66;75.11;101685.63;1052771;28;764;-60
2021/11/08 03:09:59;;;;;;;;;;;;;;;14.66;75.73;101684.78;1052982;28;749;-60
2021/11/08 03:10:55;;;;;;;;;;;;;;;14.65;75.48;101683.91;1053034;28;677;-60
2021/11/08 03:11:46;;;;;;;;;;;;;;;14.65;75.35;101688.41;1052931;28;653;-60
2021/11/08 03:12:38;;;;;;;;;;;;;;;14.65;75.75;101688.41;1053958;28;702;-60
2021/11/08 03:13:33;;;;;;;;;;;;;;;14.64;75.30;101679.50;1052671;28;869;-60
2021/11/08 03:14:25;;;;;;;;;;;;;;;14.64;75.67;101686.69;1051466;28;1114;-59
2021/11/08 03:15:30;;;;;;;;;;;;;;;14.63;75.77;101691.19;1051602;28;854;-60
2021/11/08 03:17:26;;;;;;;;;;;;;;;14.63;75.76;101688.53;1052309;28;780;-60
2021/11/08 03:18:37;;;;;;;;;;;;;;;14.63;75.79;101691.19;1051932;28;657;-60
2021/11/08 03:19:33;;;;;;;;;;;;;;;14.61;75.29;101685.06;1051391;28;837;-60
2021/11/08 03:20:23;;;;;;;;;;;;;;;14.63;75.21;101682.28;1051458;28;774;-59
2021/11/08 03:21:18;;;;;;;;;;;;;;;14.61;75.27;101687.75;1051549;28;856;-60
2021/11/08 03:22:11;;;;;;;;;;;;;;;14.61;75.54;101687.75;1051684;28;750;-60
2021/11/08 03:23:05;;;;;;;;;;;;;;;14.61;74.97;101690.44;1051633;28;815;-59
2021/11/08 03:23:59;;;;;;;;;;;;;;;14.61;75.19;101686.91;1051387;28;906;-59
2021/11/08 03:24:54;;;;;;;;;;;;;;;14.60;75.53;101683.34;1051812;28;761;-58
2021/11/08 03:25:54;;;;;;;;;;;;;;;14.61;75.06;101690.44;1051588;28;1898;-58
2021/11/08 03:27:51;;;;;;;;;;;;;;;14.61;76.17;101695.81;1052439;28;657;-57
2021/11/08 03:28:42;;;;;;;;;;;;;;;14.59;74.98;101685.19;1048198;28;800;-57
2021/11/08 03:29:32;;;;;;;;;;;;;;;14.59;75.81;101692.38;1049111;28;817;-58
2021/11/08 03:30:25;;;;;;;;;;;;;;;14.60;75.91;101686.03;1048748;28;684;-57
2021/11/08 03:31:16;;;;;;;;;;;;;;;14.58;74.93;101694.19;1047694;28;658;-58
2021/11/08 03:32:06;;;;;;;;;;;;;;;14.59;75.39;101697.72;1048247;28;810;-58
2021/11/08 03:32:57;;;;;;;;;;;;;;;14.60;75.66;101696.78;1049354;28;781;-58
2021/11/08 03:33:48;;;;;;;;;;;;;;;14.59;76.16;101687.00;1048001;28;751;-58
2021/11/08 03:34:46;;;;;;;;;;;;;;;14.59;75.45;101700.41;1048132;28;681;-58
2021/11/08 03:35:36;;;;;;;;;;;;;;;14.58;75.99;101694.19;1049159;28;688;-59
2021/11/08 03:36:27;;;;;;;;;;;;;;;14.58;75.15;101698.69;1044481;28;743;-59
2021/11/08 03:37:18;;;;;;;;;;;;;;;14.58;75.12;101696.88;1046970;28;685;-59
2021/11/08 03:38:09;;;;;;;;;;;;;;;14.58;75.63;101699.56;1047883;28;765;-59
2021/11/08 03:38:59;;;;;;;;;;;;;;;14.58;75.39;101698.69;1047922;28;638;-59
2021/11/08 03:39:51;;;;;;;;;;;;;;;14.57;74.95;101697.84;1049260;28;664;-59
2021/11/08 03:40:41;;;;;;;;;;;;;;;14.57;75.63;101703.19;1048104;28;653;-59
2021/11/08 03:41:32;;;;;;;;;;;;;;;14.57;74.93;101700.50;1048095;28;630;-59
2021/11/08 03:42:22;;;;;;;;;;;;;;;14.56;75.33;101704.16;1049273;28;840;-58
2021/11/08 03:43:13;;;;;;;;;;;;;;;14.56;75.59;101700.63;1047962;28;705;-60
2021/11/08 03:44:03;;;;;;;;;;;;;;;14.56;74.98;101705.97;1049147;28;887;-60
2021/11/08 03:44:54;;;;;;;;;;;;;;;14.55;75.71;101702.44;1049109;28;718;-60
2021/11/08 03:45:44;;;;;;;;;;;;;;;14.55;75.83;101702.44;1049127;28;1947;-60
2021/11/08 03:46:34;;;;;;;;;;;;;;;14.55;75.17;101705.13;1051630;28;1627;-60
2021/11/08 03:47:25;;;;;;;;;;;;;;;14.56;75.42;101705.97;1052105;28;665;-60
2021/11/08 03:48:15;;;;;;;;;;;;;;;14.54;75.46;101711.44;1051989;28;701;-60
2021/11/08 03:49:06;;;;;;;;;;;;;;;14.55;75.11;101709.63;1052176;28;751;-60
2021/11/08 03:49:57;;;;;;;;;;;;;;;14.55;75.56;101712.31;1052073;28;772;-60
2021/11/08 03:50:48;;;;;;;;;;;;;;;14.55;75.26;101709.63;1052116;28;969;-60
2021/11/08 03:51:39;;;;;;;;;;;;;;;14.54;75.58;101707.91;1052183;28;610;-61
2021/11/08 03:52:29;;;;;;;;;;;;;;;14.53;75.35;101706.19;1048775;28;661;-59
2021/11/08 03:53:20;;;;;;;;;;;;;;;14.54;75.14;101711.44;1051329;28;689;-60
2021/11/08 03:54:10;;;;;;;;;;;;;;;14.53;75.16;101708.88;1052072;28;758;-60
2021/11/08 03:55:00;;;;;;;;;;;;;;;14.52;75.71;101713.38;1050583;28;1833;-60
2021/11/08 03:55:52;;;;;;;;;;;;;;;14.52;76.05;101708.00;1052165;28;622;-60
2021/11/08 03:56:42;;;;;;;;;;;;;;;14.51;75.76;101702.78;1052159;28;922;-60
2021/11/08 03:57:33;;;;;;;;;;;;;;;14.52;75.30;101712.50;1052284;28;730;-60
2021/11/08 03:58:23;;;;;;;;;;;;;;;14.51;75.63;101710.81;1051911;28;670;-60
2021/11/08 03:59:14;;;;;;;;;;;;;;;14.50;75.83;101711.78;1051955;28;1387;-60
2021/11/08 04:00:04;;;;;;;;;;;;;;;14.50;75.56;101706.41;1047289;28;736;-60
2021/11/08 04:00:54;;;;;;;;;;;;;;;14.51;75.15;101713.50;1048206;28;668;-60
2021/11/08 04:01:45;;;;;;;;;;;;;;;14.50;75.84;101709.09;1052041;28;637;-60
2021/11/08 04:02:36;;;;;;;;;;;;;;;14.50;75.34;101712.66;1052843;28;739;-59
2021/11/08 04:03:26;;;;;;;;;;;;;;;14.50;75.12;101718.00;1053103;28;1992;-60
2021/11/08 04:04:17;;;;;;;;;;;;;;;14.50;75.21;101714.47;1052468;28;630;-60
2021/11/08 04:05:07;;;;;;;;;;;;;;;14.50;75.09;101711.78;1052361;28;602;-59
2021/11/08 04:05:58;;;;;;;;;;;;;;;14.49;75.94;101713.59;1052246;28;638;-59
2021/11/08 04:06:48;;;;;;;;;;;;;;;14.48;75.68;101713.69;1052959;28;776;-59
2021/11/08 04:07:38;;;;;;;;;;;;;;;14.48;75.12;101719.94;1052788;28;836;-59
2021/11/08 04:08:29;;;;;;;;;;;;;;;14.49;75.25;101715.44;1052959;28;655;-59
2021/11/08 04:09:19;;;;;;;;;;;;;;;14.49;75.32;101715.44;1052786;28;610;-60
2021/11/08 04:10:10;;;;;;;;;;;;;;;14.49;74.96;101720.78;1052422;28;598;-60
2021/11/08 04:11:00;;;;;;;;;;;;;;;14.48;75.24;101716.38;1052655;28;681;-60
2021/11/08 04:11:54;;;;;;;;;;;;;;;14.48;75.58;101719.06;1052293;28;800;-60
2021/11/08 04:12:44;;;;;;;;;;;;;;;14.49;75.58;101728.84;1052536;28;693;-59
2021/11/08 04:13:40;;;;;;;;;;;;;;;14.48;75.45;101722.63;1052017;28;756;-60
2021/11/08 04:14:31;;;;;;;;;;;;;;;14.47;75.11;101722.72;1052316;28;716;-60
2021/11/08 04:15:25;;;;;;;;;;;;;;;14.47;75.05;101726.25;1052668;28;665;-59
2021/11/08 04:16:18;;;;;;;;;;;;;;;14.47;75.00;101736.97;1052144;28;630;-59
2021/11/08 04:17:09;;;;;;;;;;;;;;;14.47;76.06;101728.06;1052622;28;701;-59
2021/11/08 04:17:59;;;;;;;;;;;;;;;14.46;75.33;101737.09;1052509;28;801;-59
2021/11/08 04:18:51;;;;;;;;;;;;;;;14.47;75.20;101730.75;1052637;28;885;-58
2021/11/08 04:19:42;;;;;;;;;;;;;;;14.47;75.78;101736.13;1052893;28;622;-59
2021/11/08 04:20:33;;;;;;;;;;;;;;;14.47;75.45;101730.75;1052215;28;614;-59
2021/11/08 04:21:23;;;;;;;;;;;;;;;14.46;75.18;101734.41;1052081;28;689;-59
2021/11/08 04:22:14;;;;;;;;;;;;;;;14.45;75.50;101733.53;1052287;28;919;-59
2021/11/08 04:23:04;;;;;;;;;;;;;;;14.45;75.04;101736.22;1052351;28;1712;-59
2021/11/08 04:23:55;;;;;;;;;;;;;;;14.44;76.00;101736.31;1057042;28;682;-59
2021/11/08 04:24:47;;;;;;;;;;;;;;;14.44;75.47;101736.31;1057221;28;709;-59
2021/11/08 04:25:38;;;;;;;;;;;;;;;14.45;75.86;101746.09;1056903;28;1969;-59
2021/11/08 04:26:30;;;;;;;;;;;;;;;14.44;75.49;101741.69;1056870;28;922;-59
2021/11/08 04:27:20;;;;;;;;;;;;;;;14.44;75.34;101730.97;1057285;28;685;-59
2021/11/08 04:28:11;;;;;;;;;;;;;;;14.44;75.69;101739.88;1056897;28;880;-60
2021/11/08 04:29:03;;;;;;;;;;;;;;;14.43;75.88;101731.91;1057021;28;904;-59
2021/11/08 04:29:53;;;;;;;;;;;;;;;14.44;75.33;101733.63;1057187;28;871;-60
2021/11/08 04:30:44;;;;;;;;;;;;;;;14.43;75.13;101722.06;1056284;28;657;-59
2021/11/08 04:31:35;;;;;;;;;;;;;;;14.42;75.09;101730.19;1056454;28;707;-60
2021/11/08 04:32:30;;;;;;;;;;;;;;;14.42;75.04;101730.19;1056558;28;730;-58
2021/11/08 04:33:45;;;;;;;;;;;;;;;14.43;75.80;101742.66;1057152;28;632;-59
2021/11/08 04:34:49;;;;;;;;;;;;;;;14.41;75.14;101732.03;1056896;28;889;-60
2021/11/08 04:35:53;;;;;;;;;;;;;;;14.41;75.74;101736.53;1057007;28;638;-60
2021/11/08 04:38:55;;;;;;;;;;;;;;;14.40;75.31;101746.38;1057194;28;868;-60
2021/11/08 04:40:44;;;;;;;;;;;;;;;14.39;75.22;101736.59;1057272;28;745;-60
2021/11/08 04:42:40;;;;;;;;;;;;;;;14.40;75.58;101737.44;1056981;28;676;-60